createdAt,value
2022-11-16T00:01:23.604Z,98544.50
2022-11-16T00:03:50.535Z,98549.03
2022-11-16T00:06:17.345Z,98545.53
2022-11-16T00:08:45.018Z,98549.88
2022-11-16T00:11:12.581Z,98552.53
2022-11-16T00:13:39.659Z,98552.53
2022-11-16T00:16:06.919Z,98552.72
2022-11-16T00:18:35.107Z,98553.56
2022-11-16T00:21:03.192Z,98542.84
2022-11-16T00:23:29.555Z,98543.88
2022-11-16T00:25:55.849Z,98541.19
2022-11-16T00:28:22.184Z,98537.69
2022-11-16T00:30:57.158Z,98533.16
2022-11-16T00:33:23.469Z,98534.13
2022-11-16T00:35:51.124Z,98522.59
2022-11-16T00:38:17.422Z,98533.31
2022-11-16T00:40:43.807Z,98522.59
2022-11-16T00:43:10.116Z,98521.75
2022-11-16T00:45:36.568Z,98523.41
2022-11-16T00:48:02.860Z,98519.09
2022-11-16T00:50:29.168Z,98521.75
2022-11-16T00:52:56.907Z,98531.66
2022-11-16T00:55:23.411Z,98513.91
2022-11-16T00:57:49.839Z,98513.09
2022-11-16T01:00:16.684Z,98509.53
2022-11-16T01:02:43.236Z,98503.19
2022-11-16T01:05:10.182Z,98512.22
2022-11-16T01:07:36.686Z,98508.56
2022-11-16T01:10:05.788Z,98496.81
2022-11-16T01:12:32.056Z,98499.69
2022-11-16T01:14:58.354Z,98501.34
2022-11-16T01:17:24.786Z,98501.34
2022-11-16T01:19:51.206Z,98501.34
2022-11-16T01:22:17.527Z,98498.69
2022-11-16T01:24:45.549Z,98486.31
2022-11-16T01:27:13.240Z,98485.44
2022-11-16T01:29:39.529Z,98488.97
2022-11-16T01:32:06.093Z,98491.81
2022-11-16T01:34:32.519Z,98481.94
2022-11-16T01:36:58.831Z,98487.28
2022-11-16T01:39:25.131Z,98482.94
2022-11-16T01:41:51.450Z,98481.09
2022-11-16T01:44:27.686Z,98476.75
2022-11-16T01:46:55.298Z,98482.94
2022-11-16T01:49:22.725Z,98486.63
2022-11-16T01:51:51.099Z,98481.28
2022-11-16T01:54:17.427Z,98469.56
2022-11-16T01:56:45.049Z,98474.91
2022-11-16T01:59:12.002Z,98473.06
2022-11-16T02:01:38.382Z,98479.44
2022-11-16T02:04:06.161Z,98477.59
2022-11-16T02:06:36.641Z,98480.44
2022-11-16T02:09:11.656Z,98462.53
2022-11-16T02:11:46.165Z,98476.75
2022-11-16T02:14:17.928Z,98468.72
2022-11-16T02:16:47.064Z,98467.03
2022-11-16T02:19:25.274Z,98465.22
2022-11-16T02:21:57.920Z,98455.34
2022-11-16T02:24:38.764Z,98460.69
2022-11-16T02:27:15.164Z,98461.53
2022-11-16T02:29:44.974Z,98457.19
2022-11-16T02:32:13.797Z,98449.16
2022-11-16T02:34:41.798Z,98443.78
2022-11-16T02:37:11.118Z,98451.81
2022-11-16T02:39:38.849Z,98438.44
2022-11-16T02:42:08.235Z,98436.75
2022-11-16T02:44:35.933Z,98436.75
2022-11-16T02:47:04.987Z,98434.91
2022-11-16T02:49:33.565Z,98445.78
2022-11-16T02:52:00.217Z,98439.41
2022-11-16T02:54:26.714Z,98429.72
2022-11-16T02:56:54.925Z,98422.53
2022-11-16T02:59:22.529Z,98428.91
2022-11-16T03:01:53.349Z,98423.53
2022-11-16T03:04:24.685Z,98428.91
2022-11-16T03:06:51.428Z,98432.41
2022-11-16T03:09:20.139Z,98443.13
2022-11-16T03:11:48.612Z,98440.63
2022-11-16T03:14:17.406Z,98436.09
2022-11-16T03:16:46.136Z,98429.91
2022-11-16T03:19:14.366Z,98431.72
2022-11-16T03:21:47.702Z,98425.38
2022-11-16T03:24:14.278Z,98423.19
2022-11-16T03:26:46.797Z,98410.09
2022-11-16T03:29:14.802Z,98407.41
2022-11-16T03:31:45.339Z,98410.56
2022-11-16T03:34:15.233Z,98416.22
2022-11-16T03:36:43.147Z,98410.31
2022-11-16T03:39:12.883Z,98401.09
2022-11-16T03:41:41.393Z,98411.94
2022-11-16T03:44:08.302Z,98401.88
2022-11-16T03:46:34.728Z,98393.50
2022-11-16T03:49:01.197Z,98389.00
2022-11-16T03:51:27.942Z,98393.97
2022-11-16T03:53:54.271Z,98380.22
2022-11-16T03:56:21.983Z,98382.56
2022-11-16T03:58:48.360Z,98373.31
2022-11-16T04:01:14.670Z,98376.47
2022-11-16T04:03:41.022Z,98370.94
2022-11-16T04:06:08.481Z,98378.63
2022-11-16T04:08:35.237Z,98370.41
2022-11-16T04:11:01.997Z,98374.56
2022-11-16T04:13:31.540Z,98374.38
2022-11-16T04:15:57.822Z,98376.72
2022-11-16T04:18:24.141Z,98376.72
2022-11-16T04:20:50.466Z,98376.53
2022-11-16T04:23:16.788Z,98378.03
2022-11-16T04:25:44.257Z,98369.97
2022-11-16T04:28:10.670Z,98373.13
2022-11-16T04:30:38.664Z,98371.28
2022-11-16T04:33:04.979Z,98363.03
2022-11-16T04:35:31.270Z,98357.50
2022-11-16T04:37:58.806Z,98357.31
2022-11-16T04:40:26.144Z,98350.75
2022-11-16T04:42:52.518Z,98357.78
2022-11-16T04:45:18.910Z,98345.03
2022-11-16T04:47:47.865Z,98347.72
2022-11-16T04:50:14.361Z,98356.44
2022-11-16T04:52:40.665Z,98340.34
2022-11-16T04:55:07.265Z,98344.47
2022-11-16T04:57:33.562Z,98346.16
2022-11-16T04:59:59.854Z,98343.28
2022-11-16T05:02:26.224Z,98350.31
2022-11-16T05:04:53.829Z,98348.28
2022-11-16T05:07:20.244Z,98351.59
2022-11-16T05:09:47.347Z,98345.06
2022-11-16T05:12:14.583Z,98344.88
2022-11-16T05:14:41.230Z,98348.56
2022-11-16T05:17:07.756Z,98355.41
2022-11-16T05:19:35.642Z,98356.25
2022-11-16T05:22:03.255Z,98356.09
2022-11-16T05:24:29.575Z,98362.28
2022-11-16T05:26:55.860Z,98355.88
2022-11-16T05:29:22.192Z,98344.13
2022-11-16T05:31:48.543Z,98348.50
2022-11-16T05:34:14.927Z,98343.13
2022-11-16T05:36:41.254Z,98335.09
2022-11-16T05:39:08.784Z,98330.34
2022-11-16T05:41:35.195Z,98335.56
2022-11-16T05:44:01.676Z,98325.66
2022-11-16T05:46:27.965Z,98318.41
2022-11-16T05:48:54.261Z,98327.31
2022-11-16T05:51:20.624Z,98326.28
2022-11-16T05:53:47.074Z,98315.38
2022-11-16T05:56:14.899Z,98311.88
2022-11-16T05:58:41.289Z,98310.00
2022-11-16T06:01:07.772Z,98309.81
2022-11-16T06:03:34.230Z,98319.53
2022-11-16T06:06:00.780Z,98313.16
2022-11-16T06:08:27.120Z,98310.47
2022-11-16T06:10:53.470Z,98315.84
2022-11-16T06:13:21.162Z,98312.13
2022-11-16T06:15:53.359Z,98317.34
2022-11-16T06:18:19.862Z,98315.28
2022-11-16T06:20:47.679Z,98313.28
2022-11-16T06:23:14.217Z,98316.72
2022-11-16T06:25:40.528Z,98317.72
2022-11-16T06:28:08.230Z,98316.72
2022-11-16T06:30:36.121Z,98314.81
2022-11-16T06:33:02.446Z,98313.41
2022-11-16T06:35:28.785Z,98315.75
2022-11-16T06:37:55.113Z,98319.72
2022-11-16T06:40:21.444Z,98318.69
2022-11-16T06:42:47.729Z,98328.03
2022-11-16T06:45:14.205Z,98335.91
2022-11-16T06:47:42.114Z,98331.38
2022-11-16T06:50:08.837Z,98327.88
2022-11-16T06:52:35.186Z,98335.72
2022-11-16T06:55:01.566Z,98332.03
2022-11-16T06:57:27.852Z,98340.09
2022-11-16T06:59:54.202Z,98347.94
2022-11-16T07:02:20.575Z,98360.53
2022-11-16T07:04:48.211Z,98354.13
2022-11-16T07:07:15.276Z,98331.47
2022-11-16T07:09:41.641Z,98318.06
2022-11-16T07:12:08.106Z,98324.25
2022-11-16T07:14:34.960Z,98329.41
2022-11-16T07:17:06.496Z,98337.47
2022-11-16T07:19:35.974Z,98342.84
2022-11-16T07:22:03.603Z,98354.31
2022-11-16T07:24:29.923Z,98348.47
2022-11-16T07:26:56.211Z,98355.09
2022-11-16T07:29:22.557Z,98365.91
2022-11-16T07:31:48.867Z,98359.88
2022-11-16T07:34:15.190Z,98352.88
2022-11-16T07:36:41.516Z,98360.63
2022-11-16T07:39:09.130Z,98353.22
2022-11-16T07:41:35.822Z,98360.78
2022-11-16T07:44:02.155Z,98360.16
2022-11-16T07:46:45.823Z,98353.56
2022-11-16T07:49:13.850Z,98356.56
2022-11-16T07:51:40.280Z,98351.84
2022-11-16T07:54:06.707Z,98352.88
2022-11-16T07:56:34.337Z,98354.03
2022-11-16T07:59:00.600Z,98365.63
2022-11-16T08:01:26.927Z,98362.00
2022-11-16T08:03:53.880Z,98362.16
2022-11-16T08:06:21.954Z,98355.63
2022-11-16T08:08:48.610Z,98359.50
2022-11-16T08:11:16.738Z,98364.69
2022-11-16T08:13:44.557Z,98372.53
2022-11-16T08:16:11.875Z,98364.03
2022-11-16T08:18:38.848Z,98358.38
2022-11-16T08:21:06.082Z,98357.34
2022-11-16T08:23:32.544Z,98360.31
2022-11-16T08:25:59.066Z,98359.84
2022-11-16T08:28:26.205Z,98370.06
2022-11-16T08:30:54.333Z,98360.03
2022-11-16T08:33:20.702Z,98353.19
2022-11-16T08:35:47.098Z,98360.50
2022-11-16T08:38:13.432Z,98370.06
2022-11-16T08:40:40.078Z,98379.41
2022-11-16T08:43:06.394Z,98374.19
2022-11-16T08:45:33.000Z,98369.66
2022-11-16T08:48:04.066Z,98372.53
2022-11-16T08:50:33.443Z,98364.69
2022-11-16T08:53:06.276Z,98370.06
2022-11-16T08:55:33.114Z,98369.84
2022-11-16T08:57:59.601Z,98376.13
2022-11-16T09:00:25.883Z,98370.75
2022-11-16T09:02:52.257Z,98374.47
2022-11-16T09:05:19.946Z,98373.97
2022-11-16T09:07:46.229Z,98382.88
2022-11-16T09:10:12.562Z,98368.78
2022-11-16T09:12:38.903Z,98361.22
2022-11-16T09:15:06.165Z,98366.13
2022-11-16T09:17:32.519Z,98365.91
2022-11-16T09:19:58.929Z,98364.09
2022-11-16T09:22:26.591Z,98343.97
2022-11-16T09:24:53.016Z,98354.69
2022-11-16T09:27:19.513Z,98366.81
2022-11-16T09:29:45.861Z,98362.09
2022-11-16T09:32:12.189Z,98360.88
2022-11-16T09:34:38.463Z,98384.69
2022-11-16T09:37:04.829Z,98381.56
2022-11-16T09:39:32.730Z,98379.28
2022-11-16T09:42:04.584Z,98385.66
2022-11-16T09:44:38.813Z,98389.31
2022-11-16T09:47:09.286Z,98396.59
2022-11-16T09:49:39.256Z,98396.44
2022-11-16T09:52:08.864Z,98397.97
2022-11-16T09:54:39.611Z,98387.09
2022-11-16T09:57:12.172Z,98381.25
2022-11-16T09:59:41.057Z,98384.28
2022-11-16T10:02:16.328Z,98390.47
2022-11-16T10:04:45.184Z,98381.66
2022-11-16T10:07:14.336Z,98383.16
2022-11-16T10:09:42.100Z,98387.63
2022-11-16T10:12:14.923Z,98381.66
2022-11-16T10:14:49.038Z,98366.72
2022-11-16T10:17:22.721Z,98361.81
2022-11-16T10:19:53.079Z,98357.72
2022-11-16T10:22:25.799Z,98349.69
2022-11-16T10:24:56.866Z,98353.19
2022-11-16T10:27:29.922Z,98350.66
2022-11-16T10:30:02.042Z,98347.00
2022-11-16T10:32:29.430Z,98339.59
2022-11-16T10:34:56.306Z,98347.00
2022-11-16T10:37:24.246Z,98341.31
2022-11-16T10:39:51.718Z,98343.44
2022-11-16T10:42:23.321Z,98324.47
2022-11-16T10:44:53.180Z,98328.63
2022-11-16T10:47:22.980Z,98313.84
2022-11-16T10:49:53.383Z,98319.81
2022-11-16T10:52:19.687Z,98317.97
2022-11-16T10:54:46.301Z,98308.72
2022-11-16T10:57:12.784Z,98299.28
2022-11-16T10:59:41.957Z,98294.34
2022-11-16T11:02:18.213Z,98296.41
2022-11-16T11:05:00.523Z,98295.56
2022-11-16T11:07:29.799Z,98286.97
2022-11-16T11:09:56.183Z,98285.31
2022-11-16T11:12:23.277Z,98282.59
2022-11-16T11:14:59.438Z,98281.34
2022-11-16T11:17:27.307Z,98286.25
2022-11-16T11:19:57.039Z,98262.34
2022-11-16T11:22:23.428Z,98267.53
2022-11-16T11:24:50.220Z,98273.06
2022-11-16T11:27:21.541Z,98259.50
2022-11-16T11:29:50.679Z,98252.06
2022-11-16T11:32:23.795Z,98258.13
2022-11-16T11:34:52.866Z,98255.25
2022-11-16T11:37:21.528Z,98254.28
2022-11-16T11:39:47.949Z,98247.78
2022-11-16T11:42:22.752Z,98243.38
2022-11-16T11:44:51.717Z,98229.69
2022-11-16T11:50:16.365Z,98218.81
2022-11-16T11:52:47.203Z,98205.75
2022-11-16T11:55:15.620Z,98203.72
2022-11-16T11:57:43.686Z,98205.94
2022-11-16T12:00:12.630Z,98203.44
2022-11-16T12:02:45.079Z,98196.81
2022-11-16T12:05:21.662Z,98180.50
2022-11-16T12:07:57.301Z,98182.38
2022-11-16T12:10:30.172Z,98176.63
2022-11-16T12:13:05.928Z,98172.66
2022-11-16T12:15:37.885Z,98173.75
2022-11-16T12:18:10.109Z,98162.84
2022-11-16T12:20:41.595Z,98155.16
2022-11-16T12:23:17.881Z,98153.44
2022-11-16T12:25:49.874Z,98150.19
2022-11-16T12:28:23.472Z,98141.94
2022-11-16T12:30:56.855Z,98151.56
2022-11-16T12:33:28.460Z,98149.25
2022-11-16T12:36:00.822Z,98143.69
2022-11-16T12:38:36.079Z,98124.09
2022-11-16T12:41:11.334Z,98096.22
2022-11-16T12:43:44.397Z,98086.84
2022-11-16T12:46:12.632Z,98084.38
2022-11-16T12:48:48.379Z,98095.75
2022-11-16T12:51:20.332Z,98079.00
2022-11-16T12:53:57.836Z,98075.28
2022-11-16T12:56:29.521Z,98063.13
2022-11-16T12:59:05.567Z,98048.84
2022-11-16T13:01:36.435Z,98034.63
2022-11-16T13:04:05.637Z,98034.63
2022-11-16T13:06:33.495Z,98018.09
2022-11-16T13:09:05.913Z,98001.25
2022-11-16T13:11:35.477Z,97994.94
2022-11-16T13:14:05.486Z,97990.53
2022-11-16T13:16:31.776Z,97974.50
2022-11-16T13:18:59.200Z,97973.28
2022-11-16T13:21:31.168Z,97964.94
2022-11-16T13:24:05.966Z,97964.81
2022-11-16T13:26:35.891Z,97947.72
2022-11-16T13:29:08.654Z,97931.88
2022-11-16T13:31:38.471Z,97929.44
2022-11-16T13:34:06.865Z,97920.16
2022-11-16T13:36:42.201Z,97902.66
2022-11-16T13:39:10.544Z,97901.81
2022-11-16T13:41:37.928Z,97899.75
2022-11-16T13:44:05.752Z,97908.44
2022-11-16T13:46:55.158Z,97902.81
2022-11-16T13:49:25.009Z,97893.69
2022-11-16T13:51:52.666Z,97887.31
2022-11-16T13:54:45.644Z,97867.75
2022-11-16T13:57:21.349Z,97850.66
2022-11-16T13:59:48.933Z,97826.69
2022-11-16T14:02:25.277Z,97816.59
2022-11-16T14:04:54.689Z,97803.44
2022-11-16T14:07:30.899Z,97790.22
2022-11-16T14:09:58.683Z,97772.06
2022-11-16T14:12:34.828Z,97757.59
2022-11-16T14:15:04.253Z,97749.09
2022-11-16T14:17:45.492Z,97735.63
2022-11-16T14:20:12.574Z,97731.72
2022-11-16T14:22:45.295Z,97709.22
2022-11-16T14:25:19.984Z,97692.31
2022-11-16T14:27:50.119Z,97672.47
2022-11-16T14:30:19.471Z,97666.50
2022-11-16T14:32:47.188Z,97662.78
2022-11-16T14:35:24.499Z,97655.31
2022-11-16T14:37:56.931Z,97652.47
2022-11-16T14:40:24.854Z,97641.31
2022-11-16T14:45:39.757Z,97639.63
2022-11-16T14:48:07.384Z,97605.34
2022-11-16T14:50:38.153Z,97609.06
2022-11-16T14:53:08.863Z,97624.75
2022-11-16T14:55:41.155Z,97612.38
2022-11-16T14:58:08.019Z,97578.91
2022-11-16T15:00:34.778Z,97545.22
2022-11-16T15:03:03.179Z,97533.06
2022-11-16T15:05:32.724Z,97519.00
2022-11-16T15:07:59.781Z,97488.44
2022-11-16T15:10:28.256Z,97453.53
2022-11-16T15:12:56.861Z,97434.16
2022-11-16T15:15:24.736Z,97403.81
2022-11-16T15:18:04.112Z,97390.41
2022-11-16T15:20:34.964Z,97370.00
2022-11-16T15:23:02.400Z,97376.19
2022-11-16T15:25:31.005Z,97362.34
2022-11-16T15:27:59.580Z,97350.16
2022-11-16T15:30:28.034Z,97346.41
2022-11-16T15:32:54.576Z,97324.28
2022-11-16T15:35:22.371Z,97322.22
2022-11-16T15:37:59.564Z,97313.94
2022-11-16T15:40:26.066Z,97299.53
2022-11-16T15:42:52.557Z,97298.69
2022-11-16T15:45:22.809Z,97285.28
2022-11-16T15:47:49.724Z,97277.22
2022-11-16T15:50:17.593Z,97284.22
2022-11-16T15:52:44.715Z,97277.41
2022-11-16T15:55:20.936Z,97273.69
2022-11-16T15:57:56.266Z,97266.69
2022-11-16T16:00:24.747Z,97249.53
2022-11-16T16:02:51.284Z,97243.16
2022-11-16T16:05:23.813Z,97223.72
2022-11-16T16:07:50.639Z,97233.66
2022-11-16T16:10:24.143Z,97239.84
2022-11-16T16:12:50.922Z,97227.03
2022-11-16T16:15:21.604Z,97239.41
2022-11-16T16:17:49.331Z,97228.91
2022-11-16T16:20:16.817Z,97217.31
2022-11-16T16:22:43.306Z,97213.00
2022-11-16T16:25:24.498Z,97213.22
2022-11-16T16:27:51.118Z,97201.66
2022-11-16T16:30:17.868Z,97187.00
2022-11-16T16:32:47.413Z,97178.94
2022-11-16T16:35:16.543Z,97193.00
2022-11-16T16:37:43.137Z,97208.47
2022-11-16T16:40:09.944Z,97225.63
2022-11-16T16:42:36.267Z,97218.81
2022-11-16T16:45:02.662Z,97168.06
2022-11-16T16:47:29.070Z,97118.09
2022-11-16T16:49:55.383Z,97122.66
2022-11-16T16:52:23.035Z,97154.00
2022-11-16T16:54:49.768Z,97139.78
2022-11-16T16:57:17.324Z,97124.94
2022-11-16T16:59:44.026Z,97145.38
2022-11-16T17:02:10.416Z,97143.75
2022-11-16T17:04:36.799Z,97134.84
2022-11-16T17:07:03.164Z,97123.50
2022-11-16T17:09:30.874Z,97138.78
2022-11-16T17:11:57.248Z,97138.78
2022-11-16T17:14:23.574Z,97116.50
2022-11-16T17:16:50.216Z,97130.13
2022-11-16T17:19:16.678Z,97123.13
2022-11-16T17:21:43.058Z,97100.22
2022-11-16T17:24:09.494Z,97073.81
2022-11-16T17:26:37.385Z,97049.66
2022-11-16T17:29:03.810Z,97029.25
2022-11-16T17:31:30.205Z,97078.78
2022-11-16T17:33:56.570Z,97058.38
2022-11-16T17:36:22.933Z,97041.22
2022-11-16T17:38:49.248Z,97037.97
2022-11-16T17:41:16.595Z,97045.38
2022-11-16T17:43:45.117Z,97043.53
2022-11-16T17:46:12.969Z,97033.03
2022-11-16T17:48:40.028Z,97035.88
2022-11-16T17:51:06.493Z,97028.63
2022-11-16T17:53:33.195Z,97028.25
2022-11-16T17:55:59.632Z,97027.66
2022-11-16T17:58:26.845Z,97028.47
2022-11-16T18:00:54.621Z,97018.81
2022-11-16T18:03:20.971Z,97019.81
2022-11-16T18:05:47.290Z,97037.78
2022-11-16T18:08:13.605Z,97039.06
2022-11-16T18:10:39.856Z,97043.38
2022-11-16T18:13:06.313Z,97037.38
2022-11-16T18:15:37.783Z,97039.25
2022-11-16T18:18:08.504Z,97049.97
2022-11-16T18:20:35.593Z,97035.75
2022-11-16T18:23:01.929Z,97038.63
2022-11-16T18:25:28.252Z,97046.91
2022-11-16T18:27:55.153Z,97059.69
2022-11-16T18:30:22.554Z,97046.50
2022-11-16T18:32:48.952Z,97067.97
2022-11-16T18:35:16.554Z,97080.56
2022-11-16T18:37:42.905Z,97077.25
2022-11-16T18:40:09.976Z,97079.13
2022-11-16T18:42:36.247Z,97103.47
2022-11-16T18:45:02.593Z,97111.53
2022-11-16T18:47:28.979Z,97118.75
2022-11-16T18:49:55.346Z,97127.00
2022-11-16T18:52:22.987Z,97124.09
2022-11-16T18:54:49.263Z,97115.66
2022-11-16T18:57:15.584Z,97111.53
2022-11-16T18:59:41.946Z,97106.78
2022-11-16T19:02:10.716Z,97116.09
2022-11-16T19:04:37.038Z,97111.75
2022-11-16T19:07:03.436Z,97111.97
2022-11-16T19:09:31.038Z,97119.19
2022-11-16T19:11:57.340Z,97114.03
2022-11-16T19:14:23.670Z,97115.06
2022-11-16T19:16:55.674Z,97113.44
2022-11-16T19:19:23.476Z,97121.66
2022-11-16T19:21:49.823Z,97103.94
2022-11-16T19:24:16.112Z,97100.22
2022-11-16T19:26:43.872Z,97105.81
2022-11-16T19:29:10.216Z,97098.81
2022-11-16T19:31:36.484Z,97110.53
2022-11-16T19:34:04.143Z,97107.88
2022-11-16T19:36:30.908Z,97114.28
2022-11-16T19:38:57.515Z,97100.63
2022-11-16T19:41:24.491Z,97093.63
2022-11-16T19:43:52.883Z,97087.69
2022-11-16T19:46:19.624Z,97083.56
2022-11-16T19:48:45.935Z,97089.75
2022-11-16T19:51:16.320Z,97086.25
2022-11-16T19:53:42.617Z,97076.75
2022-11-16T19:56:10.754Z,97079.44
2022-11-16T19:58:37.170Z,97075.94
2022-11-16T20:01:05.633Z,97067.09
2022-11-16T20:03:32.330Z,97060.91
2022-11-16T20:06:08.212Z,97068.94
2022-11-16T20:08:34.545Z,97067.28
2022-11-16T20:11:00.854Z,97062.75
2022-11-16T20:13:27.237Z,97062.16
2022-11-16T20:15:53.571Z,97063.19
2022-11-16T20:18:21.190Z,97056.78
2022-11-16T20:20:47.500Z,97057.81
2022-11-16T20:23:14.882Z,97048.34
2022-11-16T20:25:41.249Z,97030.63
2022-11-16T20:28:07.612Z,97036.81
2022-11-16T20:30:33.957Z,97030.00
2022-11-16T20:33:00.270Z,97031.63
2022-11-16T20:35:27.882Z,97038.88
2022-11-16T20:37:54.310Z,97042.34
2022-11-16T20:40:20.685Z,97040.94
2022-11-16T20:42:47.055Z,97027.13
2022-11-16T20:45:13.428Z,97028.56
2022-11-16T20:47:39.731Z,97018.69
2022-11-16T20:50:06.187Z,97011.66
2022-11-16T20:52:36.982Z,97010.66
2022-11-16T20:55:06.354Z,97011.28
2022-11-16T20:57:32.716Z,97004.03
2022-11-16T20:59:59.118Z,96995.19
2022-11-16T21:02:25.414Z,96996.22
2022-11-16T21:04:54.855Z,96995.19
2022-11-16T21:07:25.316Z,96983.22
2022-11-16T21:09:53.046Z,96984.66
2022-11-16T21:12:19.411Z,96970.88
2022-11-16T21:14:45.701Z,96977.66
2022-11-16T21:17:11.961Z,96977.66
2022-11-16T21:19:38.287Z,96969.63
2022-11-16T21:22:04.592Z,96962.88
2022-11-16T21:24:30.908Z,96975.22
2022-11-16T21:26:58.630Z,96955.84
2022-11-16T21:29:24.934Z,96956.06
2022-11-16T21:31:51.230Z,96961.19
2022-11-16T21:34:17.520Z,96963.47
2022-11-16T21:36:43.807Z,96951.91
2022-11-16T21:39:10.141Z,96954.00
2022-11-16T21:41:36.562Z,96956.06
2022-11-16T21:44:04.256Z,96955.66
2022-11-16T21:46:30.564Z,96956.47
2022-11-16T21:48:57.633Z,96957.94
2022-11-16T21:51:24.722Z,96965.97
2022-11-16T21:53:51.081Z,96964.34
2022-11-16T21:56:18.267Z,96966.78
2022-11-16T21:58:44.994Z,96981.22
2022-11-16T22:01:13.157Z,96987.00
2022-11-16T22:03:39.551Z,96968.03
2022-11-16T22:06:11.453Z,96967.44
2022-11-16T22:08:38.143Z,96969.06
2022-11-16T22:11:04.513Z,96986.19
2022-11-16T22:13:30.954Z,96983.50
2022-11-16T22:15:57.276Z,96988.25
2022-11-16T22:18:24.866Z,96987.44
2022-11-16T22:20:51.166Z,96998.13
2022-11-16T22:23:22.497Z,97007.22
2022-11-16T22:25:49.323Z,97011.75
2022-11-16T22:28:22.919Z,97020.41
2022-11-16T22:30:51.934Z,97049.88
2022-11-16T22:33:18.628Z,97048.22
2022-11-16T22:35:47.678Z,97073.16
2022-11-16T22:38:13.980Z,97116.84
2022-11-16T22:40:40.228Z,97138.28
2022-11-16T22:43:06.534Z,97138.28
2022-11-16T22:45:32.915Z,97146.53
2022-11-16T22:47:59.208Z,97158.66
2022-11-16T22:50:25.535Z,97173.09
2022-11-16T22:52:53.094Z,97182.19
2022-11-16T22:55:19.417Z,97187.72
2022-11-16T22:57:45.753Z,97189.41
2022-11-16T23:00:12.387Z,97207.09
2022-11-16T23:02:38.762Z,97209.97
2022-11-16T23:05:05.385Z,97219.44
2022-11-16T23:07:31.761Z,97218.47
2022-11-16T23:09:59.477Z,97233.88
2022-11-16T23:12:25.880Z,97236.56
2022-11-16T23:14:52.179Z,97237.78
2022-11-16T23:17:18.579Z,97257.56
2022-11-16T23:19:44.863Z,97263.13
2022-11-16T23:22:12.431Z,97277.34
2022-11-16T23:24:38.945Z,97275.72
2022-11-16T23:27:08.712Z,97285.78
2022-11-16T23:29:35.056Z,97295.69
2022-11-16T23:32:01.358Z,97300.41
2022-11-16T23:34:27.762Z,97307.41
2022-11-16T23:36:54.087Z,97311.53
2022-11-16T23:39:20.350Z,97313.81
2022-11-16T23:41:46.611Z,97310.53
2022-11-16T23:44:14.233Z,97313.81
2022-11-16T23:46:40.537Z,97328.25
2022-11-16T23:49:06.969Z,97339.34
2022-11-16T23:51:33.255Z,97345.94
2022-11-16T23:53:59.556Z,97359.53
2022-11-16T23:56:27.182Z,97372.31
2022-11-16T23:58:55.188Z,97371.50
